FW2510 Weather Reports


Display with metric or nautical units.
time (UTC)temp
F
wind
direction
speed
MPH
gust
MPH
rain 1hr
in
rain 24hr
in
rain mn
in
humidity
%
barometer
mb
20260508174520 68 101 0.0 3.0 0.00 0.11 0.01 33 1017.0
20260508173023 66 124 0.0 4.0 0.00 0.11 0.01 36 1017.3
20260508171549 67 208 2.0 5.0 0.00 0.11 0.01 34 1017.5
20260508170050 67 207 0.0 9.0 0.00 0.12 0.01 36 1017.7
20260508164517 67 255 0.0 7.0 0.00 0.12 0.01 36 1018.1
20260508163019 67 213 2.0 6.0 0.00 0.12 0.01 32 1018.1
20260508161511 66 191 0.0 3.0 0.00 0.12 0.01 33 1018.4
20260508160008 66 223 1.0 4.0 0.00 0.14 0.01 36 1018.5
20260508154508 65 122 1.0 7.0 0.00 0.14 0.01 35 1018.6
20260508153007 65 84 0.0 4.0 0.00 0.14 0.01 35 1018.8
20260508151505 64 209 0.0 6.0 0.00 0.14 0.01 39 1018.7
20260508150004 64 113 0.0 3.0 0.00 0.16 0.01 37 1018.6
20260508144501 64 132 0.0 3.0 0.00 0.16 0.01 39 1018.8
20260508143104 64 355 0.0 4.0 0.00 0.16 0.01 40 1018.9
20260508141549 63 112 0.0 2.0 0.00 0.16 0.01 43 1019.0
20260508140025 62 101 0.0 6.0 0.00 0.17 0.01 45 1019.0
20260508134523 62 58 0.0 2.0 0.00 0.17 0.01 48 1018.9
20260508133018 61 82 0.0 3.0 0.00 0.17 0.01 49 1018.7
20260508131516 61 16 0.0 2.0 0.00 0.17 0.01 49 1018.8
20260508130016 61 17 0.0 2.0 0.00 0.19 0.01 49 1018.6
20260508124511 60 109 0.0 0.0 0.00 0.19 0.01 54 1018.6
20260508123007 57 360 0.0 0.0 0.00 0.19 0.01 57 1018.4
20260508121603 56 346 0.0 0.0 0.00 0.19 0.01 59 1018.3
20260508120058 53 327 0.0 0.0 0.00 0.21 0.01 61 1018.0
20260508114557 51 304 0.0 1.0 0.00 0.21 0.01 63 1017.9
20260508113105 50 304 0.0 1.0 0.00 0.21 0.01 63 1017.5
20260508111551 50 304 0.0 0.0 0.00 0.21 0.01 64 1017.4
20260508110053 49 304 0.0 0.0 0.00 0.24 0.01 65 1017.2
20260508104546 49 304 0.0 0.0 0.00 0.24 0.01 64 1016.9
20260508103016 49 304 0.0 0.0 0.00 0.24 0.01 64 1016.6
20260508101518 49 304 0.0 0.0 0.00 0.24 0.01 65 1016.4
20260508100038 50 304 0.0 0.0 0.00 0.27 0.01 65 1016.2
20260508094538 50 304 0.0 0.0 0.00 0.27 0.01 66 1016.2
20260508093036 50 304 0.0 0.0 0.00 0.27 0.01 65 1016.1
20260508091541 51 304 0.0 1.0 0.00 0.27 0.01 64 1016.1
20260508090038 51 304 0.0 2.0 0.00 0.32 0.01 64 1015.8
20260508084529 51 313 0.0 2.0 0.00 0.32 0.01 64 1015.8
20260508083112 51 312 0.0 3.0 0.01 0.32 0.01 64 1015.7
20260508081603 51 355 0.0 0.0 0.01 0.32 0.01 65 1015.5
20260508080053 51 355 0.0 0.0 0.01 0.38 0.01 66 1015.4
20260508074554 52 355 0.0 0.0 0.01 0.38 0.01 66 1015.3
20260508073050 52 355 0.0 0.0 0.00 0.37 0.00 65 1015.2
20260508071548 53 355 0.0 0.0 0.00 0.37 0.00 65 1015.1
20260508070044 53 355 0.0 0.0 0.00 0.44 0.00 65 1015.2
20260508064544 53 355 0.0 0.0 0.00 0.44 0.00 64 1014.9
20260508063041 53 355 0.0 0.0 0.00 0.44 0.00 63 1014.8
20260508061538 54 355 0.0 0.0 0.00 0.44 0.00 62 1014.9
20260508060033 55 355 0.0 0.0 0.00 0.51 0.44 61 1014.9
20260508054533 55 355 0.0 0.0 0.00 0.51 0.44 60 1015.0
20260508053034 55 355 0.0 0.0 0.00 0.51 0.44 59 1014.9
20260508051529 55 355 0.0 0.0 0.00 0.51 0.44 59 1014.8
20260508050027 56 355 0.0 1.0 0.00 0.59 0.44 58 1014.6
20260508044524 57 355 0.0 0.0 0.00 0.59 0.44 57 1014.5
20260508043020 57 355 0.0 0.0 0.00 0.59 0.44 56 1014.4
20260508041519 57 355 0.0 0.0 0.00 0.59 0.44 56 1014.3
20260508040050 58 355 0.0 0.0 0.00 0.72 0.44 57 1014.3
20260508034545 58 355 0.0 0.0 0.00 0.72 0.44 58 1014.3
20260508033041 59 355 0.0 0.0 0.00 0.72 0.44 58 1014.2
20260508031538 60 355 0.0 0.0 0.00 0.72 0.44 57 1014.1
20260508030042 61 355 0.0 0.0 0.00 0.88 0.44 55 1014.1
20260508024538 61 355 0.0 0.0 0.00 0.88 0.44 54 1013.9
20260508023029 61 355 0.0 0.0 0.00 0.88 0.44 50 1013.7
20260508021532 62 355 0.0 0.0 0.01 0.88 0.44 48 1013.5
20260508020023 63 323 0.0 4.0 0.01 1.06 0.44 47 1013.3
20260508014524 63 18 1.0 6.0 0.01 1.06 0.44 46 1013.2
20260508013031 63 302 0.0 3.0 0.01 1.06 0.44 48 1012.5
20260508011519 63 336 0.0 2.0 0.00 1.05 0.43 52 1012.4
20260508010017 63 346 1.0 4.0 0.00 1.21 0.43 55 1012.2
20260508004531 63 333 2.0 4.0 0.00 1.21 0.43 60 1011.9
20260508003012 64 253 0.0 2.0 0.00 1.21 0.43 60 1011.7
20260508001517 64 23 1.0 5.0 0.00 1.21 0.43 62 1011.1
20260508000010 64 355 1.0 5.0 0.00 1.29 0.43 63 1010.9
20260507234510 65 360 0.0 3.0 0.00 1.29 0.43 64 1010.4
20260507233015 66 59 0.0 3.0 0.00 1.29 0.43 63 1010.6
20260507231545 66 32 1.0 6.0 0.01 1.29 0.43 63 1010.0
20260507230038 67 5 1.0 10.0 0.01 1.29 0.43 63 1009.5
20260507224508 68 55 1.0 6.0 0.01 1.29 0.43 61 1009.1
20260507223008 72 333 2.0 6.0 0.01 1.29 0.43 57 1008.6
20260507221513 75 318 3.0 15.0 0.00 1.28 0.42 47 1007.9
20260507220005 75 216 0.0 4.0 0.00 1.28 0.42 52 1007.5
20260507214503 76 176 1.0 7.0 0.01 1.28 0.42 51 1007.6
20260507213003 77 207 2.0 15.0 0.01 1.28 0.42 50 1007.5
20260507211624 76 221 6.0 14.0 0.01 1.28 0.42 49 1007.3
20260507210100 77 252 3.0 11.0 0.02 1.28 0.42 48 1007.4
20260507204608 77 201 2.0 9.0 0.01 1.27 0.41 50 1007.3
20260507203102 77 111 4.0 11.0 0.02 1.27 0.41 49 1007.5
20260507201555 77 192 5.0 10.0 0.02 1.27 0.41 50 1007.3
20260507200055 77 191 3.0 9.0 0.02 1.26 0.40 48 1007.3
20260507194626 78 150 0.0 11.0 0.02 1.26 0.40 47 1007.5
20260507193052 77 122 2.0 7.0 0.02 1.25 0.39 47 1007.8
20260507191552 76 200 3.0 10.0 0.03 1.25 0.39 47 1008.0
20260507190043 75 201 4.0 12.0 0.03 1.24 0.38 49 1008.7
20260507184544 75 212 2.0 9.0 0.03 1.24 0.38 51 1008.5
20260507183040 75 267 5.0 10.0 0.03 1.23 0.37 49 1008.8
20260507181535 74 208 3.0 8.0 0.02 1.22 0.36 51 1008.8
20260507180033 73 204 3.0 9.0 0.02 1.26 0.35 54 1008.6